createdAt,value
2023-02-21T00:01:57.236Z,96097.72
2023-02-21T00:07:17.109Z,96106.56
2023-02-21T00:12:36.942Z,96102.75
2023-02-21T00:17:56.744Z,96092.44
2023-02-21T00:23:16.510Z,96091.03
2023-02-21T00:28:36.327Z,96090.00
2023-02-21T00:33:56.419Z,96084.00
2023-02-21T00:39:16.226Z,96090.50
2023-02-21T00:44:36.368Z,96091.88
2023-02-21T00:49:56.120Z,96081.09
2023-02-21T00:55:16.509Z,96087.03
2023-02-21T01:00:36.327Z,96084.50
2023-02-21T01:05:56.876Z,96077.88
2023-02-21T01:11:17.042Z,96077.06
2023-02-21T01:16:37.295Z,96078.44
2023-02-21T01:21:57.096Z,96059.88
2023-02-21T01:27:17.212Z,96058.28
2023-02-21T01:32:37.266Z,96053.88
2023-02-21T01:37:57.153Z,96053.56
2023-02-21T01:43:17.254Z,96040.56
2023-02-21T01:48:37.366Z,96064.47
2023-02-21T01:53:58.567Z,96049.28
2023-02-21T01:59:18.570Z,96034.44
2023-02-21T02:04:38.597Z,96031.31
2023-02-21T02:09:58.792Z,96032.34
2023-02-21T02:15:01.199Z,96032.03
2023-02-21T02:20:03.550Z,96028.66
2023-02-21T02:25:05.869Z,96033.84
2023-02-21T02:30:08.768Z,96028.50
2023-02-21T02:35:11.141Z,96027.44
2023-02-21T02:40:13.491Z,96018.75
2023-02-21T02:45:15.918Z,96018.41
2023-02-21T02:50:18.301Z,96017.72
2023-02-21T02:55:20.676Z,96005.59
2023-02-21T03:00:23.064Z,96017.97
2023-02-21T03:05:25.379Z,96014.25
2023-02-21T03:10:27.805Z,96015.94
2023-02-21T03:15:30.243Z,96012.59
2023-02-21T03:20:32.608Z,96016.38
2023-02-21T03:25:35.162Z,96017.88
2023-02-21T03:30:37.584Z,96024.47
2023-02-21T03:35:39.943Z,96022.38
2023-02-21T03:40:44.726Z,96019.16
2023-02-21T03:45:47.076Z,96016.38
2023-02-21T03:50:49.403Z,96023.31
2023-02-21T03:55:51.700Z,96016.47
2023-02-21T04:00:54.879Z,96014.25
2023-02-21T04:05:57.191Z,96014.25
2023-02-21T04:10:59.540Z,96017.00
2023-02-21T04:16:01.889Z,96020.03
2023-02-21T04:21:04.175Z,96021.09
2023-02-21T04:26:06.634Z,96011.03
2023-02-21T04:31:08.989Z,96011.75
2023-02-21T04:36:11.294Z,95997.63
2023-02-21T04:41:13.966Z,96001.56
2023-02-21T04:46:17.058Z,96001.81
2023-02-21T04:51:20.269Z,95999.34
2023-02-21T04:56:22.791Z,95995.44
2023-02-21T05:01:25.137Z,95994.72
2023-02-21T05:06:27.427Z,95986.19
2023-02-21T05:11:29.796Z,95982.16
2023-02-21T05:16:32.240Z,95982.59
2023-02-21T05:21:34.626Z,95974.28
2023-02-21T05:26:36.949Z,95970.47
2023-02-21T05:31:39.318Z,95975.91
2023-02-21T05:36:41.670Z,95974.53
2023-02-21T05:41:43.978Z,95973.97
2023-02-21T05:46:46.602Z,95965.66
2023-02-21T05:51:48.954Z,95962.41
2023-02-21T05:56:51.295Z,95968.53
2023-02-21T06:01:53.622Z,95975.94
2023-02-21T06:06:55.926Z,95964.28
2023-02-21T06:11:58.238Z,95970.81
2023-02-21T06:17:00.694Z,95967.38
2023-02-21T06:22:02.992Z,95977.22
2023-02-21T06:27:05.322Z,95979.16
2023-02-21T06:32:07.623Z,95978.13
2023-02-21T06:37:10.005Z,95980.44
2023-02-21T06:42:12.444Z,95990.19
2023-02-21T06:47:14.844Z,95997.63
2023-02-21T06:52:17.294Z,95998.53
2023-02-21T06:57:20.082Z,96008.97
2023-02-21T07:02:22.415Z,96016.50
2023-02-21T07:07:24.770Z,96018.69
2023-02-21T07:12:27.804Z,96022.63
2023-02-21T07:17:30.140Z,96022.72
2023-02-21T07:22:32.424Z,96015.38
2023-02-21T07:27:34.728Z,96017.72
2023-02-21T07:32:37.097Z,96021.47
2023-02-21T07:37:39.535Z,96017.72
2023-02-21T07:42:43.229Z,96007.69
2023-02-21T07:47:47.917Z,96018.34
2023-02-21T07:52:50.705Z,96026.84
2023-02-21T07:57:53.060Z,96033.50
2023-02-21T08:02:55.541Z,96030.38
2023-02-21T08:07:57.884Z,96029.09
2023-02-21T08:13:00.232Z,96022.19
2023-02-21T08:18:02.544Z,96036.44
2023-02-21T08:23:04.983Z,96037.44
2023-02-21T08:28:07.406Z,96030.25
2023-02-21T08:33:12.227Z,96028.50
2023-02-21T08:38:15.122Z,96039.19
2023-02-21T08:43:37.800Z,96026.28
2023-02-21T08:49:00.422Z,96036.06
2023-02-21T08:54:23.325Z,96030.44
2023-02-21T08:59:45.982Z,96033.25
2023-02-21T09:05:08.640Z,96022.44
2023-02-21T09:10:31.688Z,96039.72
2023-02-21T09:15:54.369Z,96029.28
2023-02-21T09:21:17.060Z,96024.59
2023-02-21T09:26:39.867Z,96034.06
2023-02-21T09:32:02.551Z,96031.66
2023-02-21T09:37:25.253Z,96027.72
2023-02-21T09:42:47.869Z,96031.53
2023-02-21T09:48:10.516Z,96022.66
2023-02-21T09:53:33.173Z,96009.25
2023-02-21T09:58:56.501Z,96014.63
2023-02-21T10:04:19.152Z,96003.34
2023-02-21T10:09:41.855Z,96006.56
2023-02-21T10:15:04.529Z,96006.00
2023-02-21T10:20:27.394Z,96006.00
2023-02-21T10:25:50.109Z,96007.88
2023-02-21T10:31:13.391Z,96017.00
2023-02-21T10:36:36.496Z,96022.09
2023-02-21T10:41:59.181Z,96013.47
2023-02-21T10:47:22.489Z,96018.28
2023-02-21T10:52:45.160Z,96008.31
2023-02-21T10:58:08.713Z,96005.81
2023-02-21T11:03:31.761Z,95996.06
2023-02-21T11:08:54.433Z,95991.78
2023-02-21T11:14:17.081Z,95994.44
2023-02-21T11:19:39.748Z,95980.16
2023-02-21T11:25:02.457Z,95968.03
2023-02-21T11:30:25.381Z,95953.44
2023-02-21T11:35:48.299Z,95956.91
2023-02-21T11:41:10.986Z,95942.13
2023-02-21T11:46:33.956Z,95939.41
2023-02-21T11:51:56.643Z,95924.41
2023-02-21T11:57:19.479Z,95921.34
2023-02-21T12:02:42.238Z,95914.19
2023-02-21T12:08:04.959Z,95911.63
2023-02-21T12:13:27.614Z,95895.56
2023-02-21T12:18:50.748Z,95889.91
2023-02-21T12:24:13.622Z,95889.78
2023-02-21T12:29:16.104Z,95878.88
2023-02-21T12:34:37.304Z,95876.59
2023-02-21T12:40:00.209Z,95867.22
2023-02-21T12:45:24.475Z,95857.94
2023-02-21T12:50:47.135Z,95855.47
2023-02-21T12:56:10.120Z,95847.09
2023-02-21T13:01:33.155Z,95836.66
2023-02-21T13:06:57.316Z,95831.50
2023-02-21T13:12:20.256Z,95820.09
2023-02-21T13:17:42.889Z,95818.16
2023-02-21T13:23:21.759Z,95801.34
2023-02-21T13:28:44.491Z,95801.84
2023-02-21T13:34:05.352Z,95787.31
2023-02-21T13:39:07.743Z,95774.97
2023-02-21T13:44:30.453Z,95773.19
2023-02-21T13:49:32.808Z,95772.19
2023-02-21T13:54:35.195Z,95765.19
2023-02-21T13:59:37.583Z,95759.63
2023-02-21T14:05:01.083Z,95741.34
2023-02-21T14:10:03.994Z,95737.16
2023-02-21T14:15:06.928Z,95727.78
2023-02-21T14:20:09.431Z,95720.34
2023-02-21T14:25:12.422Z,95723.03
2023-02-21T14:30:15.094Z,95712.44
2023-02-21T14:35:18.894Z,95707.72
2023-02-21T14:40:21.522Z,95710.91
2023-02-21T14:45:24.209Z,95704.50
2023-02-21T14:50:26.810Z,95701.28
2023-02-21T14:55:29.774Z,95693.81
2023-02-21T15:00:32.065Z,95686.94
2023-02-21T15:05:35.833Z,95682.22
2023-02-21T15:10:38.276Z,95678.75
2023-02-21T15:15:41.474Z,95666.78
2023-02-21T15:20:44.715Z,95660.44
2023-02-21T15:25:47.624Z,95660.19
2023-02-21T15:30:50.031Z,95656.25
2023-02-21T15:35:52.794Z,95648.25
2023-02-21T15:40:57.391Z,95652.47
2023-02-21T15:46:00.547Z,95647.75
2023-02-21T15:51:03.518Z,95644.38
2023-02-21T15:56:06.528Z,95637.56
2023-02-21T16:01:08.922Z,95632.81
2023-02-21T16:06:11.292Z,95635.13
2023-02-21T16:11:14.361Z,95630.97
2023-02-21T16:16:16.924Z,95628.13
2023-02-21T16:21:19.309Z,95625.53
2023-02-21T16:26:25.136Z,95629.06
2023-02-21T16:31:56.737Z,95627.09
2023-02-21T16:36:59.102Z,95637.19
2023-02-21T16:42:01.693Z,95631.94
2023-02-21T16:47:04.235Z,95628.63
2023-02-21T16:52:16.629Z,95626.03
2023-02-21T16:57:19.110Z,95627.59
2023-02-21T17:02:25.066Z,95633.97
2023-02-21T17:07:31.607Z,95632.59
2023-02-21T17:12:44.091Z,95634.38
2023-02-21T17:17:54.189Z,95642.50
2023-02-21T17:23:06.584Z,95639.59
2023-02-21T17:28:10.275Z,95644.84
2023-02-21T17:33:18.223Z,95641.38
2023-02-21T17:38:21.550Z,95641.91
2023-02-21T17:43:24.226Z,95649.41
2023-02-21T17:48:36.812Z,95637.91
2023-02-21T17:53:39.558Z,95636.91
2023-02-21T17:58:42.412Z,95638.00
2023-02-21T18:03:44.847Z,95631.53
2023-02-21T18:08:47.898Z,95629.38
2023-02-21T18:13:51.137Z,95633.47
2023-02-21T18:18:54.672Z,95634.56
2023-02-21T18:23:57.957Z,95643.16
2023-02-21T18:29:00.300Z,95635.66
2023-02-21T18:34:07.549Z,95634.84
2023-02-21T18:39:09.912Z,95632.69
2023-02-21T18:44:12.230Z,95639.91
2023-02-21T18:49:15.675Z,95640.72
2023-02-21T18:54:18.274Z,95633.72
2023-02-21T18:59:20.763Z,95624.03
2023-02-21T19:04:23.528Z,95628.81
2023-02-21T19:09:26.057Z,95638.47
2023-02-21T19:14:28.338Z,95637.91
2023-02-21T19:19:31.325Z,95649.16
2023-02-21T19:24:34.393Z,95642.09
2023-02-21T19:29:37.684Z,95639.38
2023-02-21T19:34:40.420Z,95639.63
2023-02-21T19:39:43.610Z,95643.09
2023-02-21T19:44:46.251Z,95636.63
2023-02-21T19:49:49.753Z,95642.00
2023-02-21T19:54:54.003Z,95638.75
2023-02-21T19:59:56.445Z,95647.53
2023-02-21T20:05:07.338Z,95636.00
2023-02-21T20:10:11.820Z,95641.59
2023-02-21T20:15:15.022Z,95634.84
2023-02-21T20:20:17.296Z,95630.75
2023-02-21T20:25:23.564Z,95633.22
2023-02-21T20:30:26.130Z,95631.56
2023-02-21T20:35:30.618Z,95633.63
2023-02-21T20:40:33.790Z,95632.50
2023-02-21T20:45:38.531Z,95632.47
2023-02-21T20:50:41.682Z,95633.69
2023-02-21T20:55:44.878Z,95630.75
2023-02-21T21:00:47.706Z,95628.03
2023-02-21T21:05:50.733Z,95626.09
2023-02-21T21:10:53.490Z,95621.75
2023-02-21T21:15:55.962Z,95630.78
2023-02-21T21:20:59.341Z,95628.28
2023-02-21T21:26:03.269Z,95623.34
2023-02-21T21:31:08.982Z,95626.44
2023-02-21T21:36:12.220Z,95620.53
2023-02-21T21:41:15.847Z,95617.28
2023-02-21T21:46:19.766Z,95623.94
2023-02-21T21:51:25.635Z,95618.78
2023-02-21T21:56:28.298Z,95617.34
2023-02-21T22:01:30.975Z,95618.06
2023-02-21T22:06:34.943Z,95621.72
2023-02-21T22:11:37.468Z,95624.56
2023-02-21T22:16:42.574Z,95620.41
2023-02-21T22:21:45.873Z,95618.97
2023-02-21T22:26:49.154Z,95619.50
2023-02-21T22:31:52.483Z,95611.09
2023-02-21T22:36:56.408Z,95609.75
2023-02-21T22:42:09.206Z,95610.84
2023-02-21T22:47:12.019Z,95611.19
2023-02-21T22:52:15.299Z,95602.50
2023-02-21T22:57:19.099Z,95600.19
2023-02-21T23:02:23.533Z,95595.81
2023-02-21T23:07:26.946Z,95599.00
2023-02-21T23:12:31.500Z,95604.25
2023-02-21T23:17:33.839Z,95605.78
2023-02-21T23:22:36.619Z,95596.19
2023-02-21T23:27:39.067Z,95592.16
2023-02-21T23:32:41.481Z,95587.38
2023-02-21T23:37:44.214Z,95591.81
2023-02-21T23:42:46.738Z,95590.66
2023-02-21T23:47:49.500Z,95589.50
2023-02-21T23:52:51.998Z,95595.34
2023-02-21T23:57:54.312Z,95595.09
